Time;durP1;ratioP1;P1;durP2;ratioP2;P2;SDS_P1;SDS_P2;PMS_P1;PMS_P2;Temp;Humidity;BMP_temperature;BMP_pressure;BME280_temperature;BME280_humidity;BME280_pressure;Samples;Min_cycle;Max_cycle;Signal;HPM_P1;HPM_P2
2021/12/20 00:02:17;;;;;;;11.00;8.17;;;4.00;92.30;;;2.58;94.11;98611.34;5085427;28;20457;-73
2021/12/20 00:04:46;;;;;;;11.00;7.67;;;4.00;92.50;;;2.49;93.93;98605.09;5068377;28;20801;-73
2021/12/20 00:07:13;;;;;;;9.73;7.53;;;4.00;92.40;;;2.51;93.90;98595.09;5085066;28;20437;-74
2021/12/20 00:09:40;;;;;;;12.93;7.97;;;4.00;92.30;;;2.61;93.95;98605.69;5090052;28;20449;-73
2021/12/20 00:12:09;;;;;;;12.80;8.00;;;4.00;92.70;;;2.60;94.26;98598.69;5100840;28;20800;-74
2021/12/20 00:14:37;;;;;;;12.10;8.57;;;4.00;92.70;;;2.52;94.41;98594.97;5091831;28;20456;-75
2021/12/20 00:17:05;;;;;;;13.13;8.60;;;4.00;92.70;;;2.52;94.08;98597.63;5091315;28;21838;-73
2021/12/20 00:19:32;;;;;;;11.60;8.20;;;4.00;92.80;;;2.52;94.02;98586.97;5090240;28;20520;-74
2021/12/20 00:21:59;;;;;;;13.67;9.43;;;4.00;92.50;;;2.49;94.17;98589.06;5097815;28;20816;-74
2021/12/20 00:24:26;;;;;;;11.67;8.43;;;4.00;92.60;;;2.57;93.79;98585.66;5100377;28;20530;-74
2021/12/20 00:26:53;;;;;;;13.33;7.77;;;4.00;92.50;;;2.62;93.79;98586.03;5091996;28;20547;-75
2021/12/20 00:29:20;;;;;;;13.97;8.20;;;4.00;92.90;;;2.67;93.87;98589.94;5097742;28;20550;-74
2021/12/20 00:31:48;;;;;;;13.80;9.20;;;4.00;92.70;;;2.60;94.36;98596.03;5093807;28;20535;-74
2021/12/20 00:34:15;;;;;;;13.23;8.10;;;4.00;92.80;;;2.61;93.33;98587.03;5092770;28;20451;-75
2021/12/20 00:36:42;;;;;;;11.17;8.17;;;4.00;92.40;;;2.54;93.71;98587.63;5077614;28;20497;-76
2021/12/20 00:41:54;;;;;;;12.37;7.30;;;4.00;92.20;;;2.61;93.27;98584.34;5092401;28;20482;-75
2021/12/20 00:44:21;;;;;;;12.70;7.30;;;4.00;92.10;;;2.63;93.25;98585.91;5091880;28;20448;-75
2021/12/20 00:46:51;;;;;;;10.60;8.00;;;4.10;91.80;;;2.41;93.77;98563.16;5090753;28;20538;-75
2021/12/20 00:49:18;;;;;;;11.20;7.97;;;4.10;91.70;;;2.59;92.88;98586.34;5093651;28;20456;-76
2021/12/20 00:51:45;;;;;;;17.27;8.40;;;4.00;91.70;;;2.72;93.20;98586.81;5095301;28;20457;-74
2021/12/20 00:54:12;;;;;;;13.03;8.10;;;4.10;92.30;;;2.71;92.45;98587.81;5109076;28;20440;-74
2021/12/20 00:56:39;;;;;;;13.23;8.13;;;4.20;91.50;;;2.64;93.01;98590.25;5093870;28;20479;-74
2021/12/20 00:59:07;;;;;;;11.07;7.50;;;4.10;91.80;;;2.54;93.46;98595.66;5094381;28;20436;-74
2021/12/20 01:01:34;;;;;;;12.70;7.67;;;4.10;91.80;;;2.45;93.70;98583.19;5094064;28;20656;-73
2021/12/20 01:04:04;;;;;;;15.10;8.40;;;4.00;92.10;;;2.58;92.81;98579.34;5092050;28;20464;-74
2021/12/20 01:06:31;;;;;;;10.30;7.70;;;4.10;91.80;;;2.58;93.20;98584.66;5089764;28;20457;-73
2021/12/20 01:08:58;;;;;;;14.87;8.73;;;4.10;92.20;;;2.60;93.32;98590.69;5092041;28;20540;-74
2021/12/20 01:11:27;;;;;;;12.00;7.80;;;4.10;91.70;;;2.63;93.13;98588.56;5092156;28;20464;-73
2021/12/20 01:13:54;;;;;;;10.57;7.27;;;4.10;91.30;;;2.68;92.82;98594.28;5096097;28;20525;-73
2021/12/20 01:16:29;;;;;;;11.97;7.63;;;4.10;91.80;;;2.62;93.12;98580.69;5092947;28;20884;-73
2021/12/20 01:18:57;;;;;;;9.43;7.03;;;4.20;91.40;;;2.58;93.19;98593.53;5100688;27;20464;-73
2021/12/20 01:21:26;;;;;;;10.83;7.33;;;4.10;91.80;;;2.59;93.71;98610.34;5090656;28;20539;-73
2021/12/20 01:23:54;;;;;;;10.63;7.40;;;4.10;92.00;;;2.69;93.44;98595.13;5089605;28;20576;-74
2021/12/20 01:26:21;;;;;;;12.43;8.50;;;4.10;92.10;;;2.55;93.96;98586.66;5091772;28;20547;-73
2021/12/20 01:28:48;;;;;;;11.93;8.10;;;4.10;92.30;;;2.66;93.40;98587.44;5086723;28;20488;-73
2021/12/20 01:31:15;;;;;;;8.97;7.37;;;4.10;91.80;;;2.66;93.24;98598.94;5093020;28;20884;-74
2021/12/20 01:33:42;;;;;;;11.70;7.23;;;4.10;91.90;;;2.76;92.93;98582.84;5088703;28;20440;-73
2021/12/20 01:36:09;;;;;;;10.67;7.33;;;4.20;92.20;;;2.71;93.01;98601.16;5089638;28;20514;-75
2021/12/20 01:38:37;;;;;;;9.73;7.40;;;4.20;91.50;;;2.64;93.77;98608.91;5089147;28;20467;-73
2021/12/20 01:41:05;;;;;;;13.57;7.47;;;4.10;92.10;;;2.88;93.23;98607.50;5087397;28;20888;-73
2021/12/20 01:43:32;;;;;;;10.90;7.03;;;4.20;92.40;;;2.96;92.57;98609.44;5092374;28;21072;-73
2021/12/20 01:46:00;;;;;;;10.67;7.50;;;4.30;91.50;;;2.89;91.82;98597.66;5084074;28;20489;-74
2021/12/20 01:48:27;;;;;;;9.10;7.23;;;4.30;90.80;;;2.70;92.67;98602.16;5091948;28;20487;-73
2021/12/20 01:51:29;;;;;;;10.40;7.47;;;4.20;91.10;;;2.88;92.08;98606.66;5073194;28;21253;-74
2021/12/20 01:53:59;;;;;;;12.43;8.13;;;4.30;91.40;;;2.78;92.44;98610.22;5091389;28;20436;-76
2021/12/20 01:56:27;;;;;;;10.93;7.07;;;4.30;91.10;;;2.62;93.89;98607.38;5090682;28;20504;-75
2021/12/20 01:59:13;;;;;;;10.80;7.40;;;4.10;91.70;;;2.72;93.51;98612.66;5096603;28;20475;-74
2021/12/20 02:01:59;;;;;;;10.10;6.90;;;4.10;92.10;;;2.65;94.00;98615.94;5095259;28;20464;-74
2021/12/20 02:04:48;;;;;;;10.67;7.33;;;4.10;92.40;;;2.63;94.47;98622.41;5091080;28;20466;-75
2021/12/20 02:07:47;;;;;;;8.63;6.50;;;4.10;92.90;;;2.61;95.01;98611.03;5097530;28;20452;-74
2021/12/20 02:10:35;;;;;;;10.80;7.40;;;4.10;93.30;;;2.48;95.93;98612.22;5100481;28;20463;-74
2021/12/20 02:13:22;;;;;;;10.53;6.80;;;4.00;93.80;;;2.52;95.41;98608.28;5101047;28;20533;-73
2021/12/20 02:16:08;;;;;;;11.17;7.37;;;4.00;93.70;;;2.65;95.07;98610.59;5092696;28;20532;-74
2021/12/20 02:18:54;;;;;;;8.53;6.63;;;4.10;94.40;;;2.73;94.23;98607.19;5092336;28;20464;-75
2021/12/20 02:21:44;;;;;;;9.87;6.97;;;4.10;93.50;;;2.66;95.14;98603.44;5100043;28;20450;-73
2021/12/20 02:24:30;;;;;;;11.43;7.80;;;4.10;94.50;;;2.72;95.02;98607.31;5100469;28;20470;-75
2021/12/20 02:27:17;;;;;;;9.20;6.93;;;4.20;93.70;;;2.63;94.79;98609.06;5091524;28;20559;-75
2021/12/20 02:30:10;;;;;;;10.73;6.87;;;4.10;93.50;;;2.69;94.68;98600.47;5097919;28;20536;-75
2021/12/20 02:39:06;;;;;;;12.67;7.57;;;4.00;95.00;;;2.61;95.13;98600.38;5097578;28;20857;-74
2021/12/20 02:41:52;;;;;;;8.67;6.23;;;4.10;93.50;;;2.39;95.61;98595.28;5088702;28;20446;-74
2021/12/20 02:44:37;;;;;;;13.10;7.27;;;4.00;94.10;;;2.61;94.84;98601.22;5098983;28;21748;-73
2021/12/20 02:47:28;;;;;;;14.90;7.83;;;4.00;93.90;;;2.55;95.02;98601.81;5088082;28;20456;-75
2021/12/20 02:50:16;;;;;;;8.47;6.00;;;4.00;93.50;;;2.57;94.68;98596.31;5083435;28;20962;-74
2021/12/20 02:53:02;;;;;;;9.83;6.90;;;4.00;93.40;;;2.57;94.63;98593.66;5089383;28;20525;-74
2021/12/20 02:55:49;;;;;;;9.77;6.37;;;4.00;93.70;;;2.28;95.07;98552.00;5093171;28;20557;-74
2021/12/20 02:58:35;;;;;;;9.97;6.13;;;4.10;93.60;;;2.51;95.10;98601.28;5094129;28;20505;-73
2021/12/20 03:01:21;;;;;;;11.93;7.13;;;4.10;93.30;;;2.51;95.57;98590.63;5092037;28;20463;-74
2021/12/20 03:04:08;;;;;;;9.10;6.30;;;4.00;93.70;;;2.78;94.44;98601.41;5093025;28;20608;-75
2021/12/20 03:06:57;;;;;;;11.97;7.10;;;4.10;93.90;;;2.67;94.45;98589.13;5090193;28;20799;-74
2021/12/20 03:09:50;;;;;;;8.20;6.60;;;4.10;92.70;;;2.47;94.31;98585.72;5095448;28;20486;-74
2021/12/20 03:12:37;;;;;;;12.70;6.37;;;4.00;92.80;;;2.28;95.11;98578.66;5091689;28;20561;-74
2021/12/20 03:15:25;;;;;;;9.90;6.20;;;3.90;93.50;;;2.41;95.21;98595.16;5090027;28;20494;-74
2021/12/20 03:18:11;;;;;;;11.60;6.87;;;3.90;93.80;;;2.46;95.26;98598.19;5092473;28;20463;-74
2021/12/20 03:20:57;;;;;;;12.20;6.60;;;3.90;94.60;;;2.63;94.46;98614.41;5090171;28;21124;-75
2021/12/20 03:23:42;;;;;;;8.47;5.90;;;4.00;93.60;;;2.59;94.61;98607.69;5088849;28;21001;-75
2021/12/20 03:26:28;;;;;;;9.70;5.67;;;4.00;93.90;;;2.58;94.30;98606.00;5089920;28;20443;-74
2021/12/20 03:29:15;;;;;;;8.87;6.00;;;4.00;93.20;;;2.45;95.00;98612.53;5088022;28;20458;-75
2021/12/20 03:32:01;;;;;;;11.13;5.87;;;3.90;93.40;;;2.44;94.47;98605.53;5092335;28;20467;-75
2021/12/20 03:34:47;;;;;;;9.17;6.13;;;3.90;93.30;;;2.40;94.83;98617.47;5092070;28;20558;-74
2021/12/20 03:37:33;;;;;;;13.63;6.00;;;3.90;93.10;;;2.35;95.04;98611.72;5092613;28;20493;-74
2021/12/20 03:40:19;;;;;;;7.93;5.60;;;3.90;93.70;;;2.24;95.73;98616.28;5076119;28;20455;-76
2021/12/20 03:43:09;;;;;;;8.73;5.67;;;3.80;93.90;;;2.24;96.01;98618.97;5096278;28;20933;-74
2021/12/20 03:45:57;;;;;;;9.83;5.77;;;3.80;94.40;;;2.26;95.59;98614.31;5090627;28;21112;-74
2021/12/20 03:48:43;;;;;;;7.87;5.67;;;3.70;94.60;;;2.24;95.29;98613.63;5093007;28;20521;-74
2021/12/20 03:51:28;;;;;;;9.20;5.63;;;3.80;94.10;;;2.38;95.50;98619.47;5100780;28;20990;-73
2021/12/20 03:54:14;;;;;;;11.00;6.27;;;3.80;94.80;;;2.29;95.98;98631.00;5104528;28;20824;-73
2021/12/20 03:57:00;;;;;;;7.53;5.33;;;3.70;94.50;;;2.13;96.04;98629.81;5088917;28;20451;-73
2021/12/20 03:59:47;;;;;;;9.73;6.27;;;3.70;94.80;;;2.19;96.00;98634.53;5088142;28;20487;-74
2021/12/20 04:02:39;;;;;;;9.67;7.23;;;3.70;94.70;;;2.11;96.09;98629.13;5104816;28;20794;-75
2021/12/20 04:05:25;;;;;;;9.10;6.43;;;3.70;94.70;;;2.20;96.23;98636.25;5095361;28;20447;-74
2021/12/20 04:08:10;;;;;;;10.33;6.50;;;3.70;95.10;;;2.00;96.28;98614.16;5091827;28;21008;-75
2021/12/20 04:10:57;;;;;;;7.43;5.33;;;3.70;95.00;;;2.16;95.83;98645.50;5093196;28;20454;-75
2021/12/20 04:13:42;;;;;;;7.87;5.60;;;3.70;94.70;;;2.24;96.09;98648.28;5094529;28;20672;-75
2021/12/20 04:16:29;;;;;;;7.73;5.20;;;3.70;95.30;;;2.31;96.00;98642.34;5094133;28;20447;-74
2021/12/20 04:19:15;;;;;;;8.20;4.90;;;3.70;95.30;;;2.36;95.16;98634.78;5111585;28;20482;-75
2021/12/20 04:22:01;;;;;;;8.07;5.20;;;3.80;93.80;;;2.31;96.03;98637.03;5082786;28;20974;-74
2021/12/20 04:24:47;;;;;;;6.10;4.40;;;3.80;94.80;;;2.17;96.14;98633.84;5088931;28;20555;-74
2021/12/20 04:27:34;;;;;;;8.83;5.20;;;3.70;94.30;;;2.04;96.70;98636.84;5091498;28;20455;-75
2021/12/20 04:30:20;;;;;;;6.30;5.07;;;3.60;95.10;;;2.04;96.72;98625.34;5092624;28;20442;-74
2021/12/20 04:33:05;;;;;;;10.80;5.53;;;3.60;96.00;;;1.97;97.38;98630.41;5087896;28;20541;-74
2021/12/20 04:35:53;;;;;;;8.83;5.07;;;3.50;96.30;;;2.02;97.55;98630.84;5089228;28;20917;-74
2021/12/20 04:38:39;;;;;;;8.70;5.13;;;3.50;98.10;;;1.89;97.36;98627.66;5090516;28;20613;-73
2021/12/20 04:41:25;;;;;;;10.07;5.10;;;3.50;96.10;;;1.93;97.67;98637.88;5089283;28;20535;-75
2021/12/20 04:44:11;;;;;;;8.40;4.80;;;3.40;97.60;;;2.08;97.21;98640.06;5088356;28;20444;-74
2021/12/20 04:46:57;;;;;;;7.27;5.13;;;3.50;98.40;;;1.90;97.94;98651.50;5093378;28;21126;-74
2021/12/20 04:49:44;;;;;;;10.43;5.70;;;3.40;97.00;;;1.75;98.39;98658.25;5095568;28;20787;-74
2021/12/20 04:52:31;;;;;;;9.30;5.30;;;3.30;98.30;;;1.81;98.78;98647.84;5101677;28;20487;-75
2021/12/20 04:55:17;;;;;;;9.73;5.60;;;3.20;99.90;;;1.74;97.92;98643.22;5111350;28;20482;-74
2021/12/20 04:58:06;;;;;;;8.00;5.37;;;3.20;98.80;;;1.61;98.63;98646.22;5111182;28;20455;-74
2021/12/20 05:00:52;;;;;;;8.80;5.30;;;3.10;99.90;;;1.70;99.33;98656.84;5102432;28;20459;-74
2021/12/20 05:03:38;;;;;;;9.03;6.33;;;3.10;99.90;;;1.58;98.26;98652.66;5111051;28;20537;-74
2021/12/20 05:06:23;;;;;;;13.00;7.50;;;3.10;99.90;;;1.25;98.79;98644.13;5101831;28;20440;-73
2021/12/20 05:09:10;;;;;;;15.40;7.17;;;2.90;99.10;;;1.35;99.81;98666.28;5114789;28;20789;-74
2021/12/20 05:12:09;;;;;;;9.13;6.30;;;2.80;99.90;;;1.29;99.88;98663.34;5129307;28;20443;-74
2021/12/20 05:14:55;;;;;;;9.73;6.33;;;2.80;99.90;;;1.49;99.49;98657.00;5099583;28;20471;-74
2021/12/20 05:17:40;;;;;;;7.80;5.60;;;2.80;99.90;;;1.45;99.43;98649.47;5097382;28;20464;-74
2021/12/20 05:20:27;;;;;;;8.57;5.90;;;2.80;99.90;;;1.25;100.00;98660.97;5091993;28;20574;-76
2021/12/20 05:23:13;;;;;;;10.67;6.23;;;2.70;99.90;;;1.20;100.00;98676.50;5094761;28;20523;-76
2021/12/20 05:26:00;;;;;;;7.10;5.00;;;2.70;99.90;;;1.05;100.00;98652.13;5102895;28;20990;-74
2021/12/20 05:28:46;;;;;;;11.67;6.90;;;2.60;99.90;;;0.92;100.00;98664.84;5090200;28;20977;-76
2021/12/20 05:31:33;;;;;;;8.27;6.27;;;2.60;99.90;;;0.77;100.00;98659.91;5086470;28;20586;-77
2021/12/20 05:34:19;;;;;;;11.30;7.60;;;2.50;99.90;;;0.72;100.00;98670.13;5100035;28;20415;-75
2021/12/20 05:37:05;;;;;;;10.00;6.63;;;2.30;99.90;;;0.59;100.00;98678.34;5091620;28;21284;-76
2021/12/20 05:39:51;;;;;;;10.67;6.30;;;2.20;99.90;;;0.52;100.00;98690.50;5091978;28;20566;-76
2021/12/20 05:42:38;;;;;;;11.37;7.27;;;2.10;99.90;;;0.50;100.00;98690.63;5109892;28;20435;-74
2021/12/20 05:45:24;;;;;;;14.10;7.03;;;2.10;99.90;;;0.42;100.00;98682.50;5091781;28;20508;-76
2021/12/20 05:48:10;;;;;;;12.47;7.00;;;2.00;99.90;;;-0.08;100.00;98614.97;5096472;28;20448;-74
2021/12/20 05:50:55;;;;;;;17.73;8.33;;;1.90;99.90;;;0.33;100.00;98681.50;5098091;28;20430;-75
2021/12/20 05:53:41;;;;;;;13.20;7.23;;;1.90;99.90;;;0.28;100.00;98699.63;5100202;28;20829;-75
2021/12/20 05:56:26;;;;;;;9.03;6.90;;;1.80;99.90;;;0.22;100.00;98711.63;5099766;28;20432;-76
2021/12/20 05:59:13;;;;;;;10.57;7.00;;;1.70;99.90;;;0.17;100.00;98711.19;5087686;28;20467;-75
2021/12/20 06:01:59;;;;;;;11.20;7.90;;;1.70;99.90;;;0.36;100.00;98720.25;5094835;28;20852;-75
2021/12/20 06:04:50;;;;;;;12.87;9.33;;;1.80;99.90;;;0.27;100.00;98717.41;5084586;28;20941;-78
2021/12/20 06:07:40;;;;;;;11.40;8.30;;;1.80;99.90;;;0.10;100.00;98688.78;5092335;28;20462;-78
2021/12/20 06:10:25;;;;;;;14.03;8.43;;;1.70;99.90;;;0.39;100.00;98731.47;5101340;28;20768;-78
2021/12/20 06:13:11;;;;;;;12.03;8.37;;;1.80;99.90;;;0.26;100.00;98699.78;5087616;28;20842;-78
2021/12/20 06:15:58;;;;;;;14.60;8.43;;;1.90;99.90;;;0.39;100.00;98728.81;5094966;28;20545;-70
2021/12/20 06:18:44;;;;;;;12.17;8.23;;;1.80;99.90;;;0.14;100.00;98696.34;5093594;28;20533;-71
2021/12/20 06:21:39;;;;;;;11.23;8.93;;;1.80;99.90;;;0.23;100.00;98726.63;5088597;28;20463;-72
2021/12/20 06:24:30;;;;;;;13.30;8.73;;;1.70;99.90;;;0.22;100.00;98746.19;5087016;28;20467;-72
2021/12/20 06:27:16;;;;;;;10.03;7.70;;;1.70;99.90;;;-0.02;100.00;98728.72;5086599;28;20584;-72
2021/12/20 06:30:03;;;;;;;12.27;7.90;;;1.60;99.90;;;-0.04;100.00;98740.44;5089302;28;20467;-74
2021/12/20 06:32:50;;;;;;;13.00;8.20;;;1.50;99.90;;;0.17;100.00;98739.59;5086336;28;20680;-76
2021/12/20 06:35:36;;;;;;;14.50;8.70;;;1.60;99.90;;;-0.07;100.00;98704.38;5090517;28;20581;-75
2021/12/20 06:38:23;;;;;;;12.50;8.00;;;1.70;99.90;;;-0.02;100.00;98734.03;5107730;27;20471;-76
2021/12/20 06:41:09;;;;;;;14.97;8.70;;;1.60;99.90;;;-0.03;100.00;98727.03;5101617;28;20517;-75
2021/12/20 06:43:55;;;;;;;13.40;8.70;;;1.60;99.90;;;-0.17;100.00;98748.63;5105799;28;20577;-75
2021/12/20 06:46:41;;;;;;;12.70;8.33;;;1.40;99.90;;;-0.17;100.00;98756.59;5092240;28;20446;-75
2021/12/20 06:49:29;;;;;;;13.50;8.87;;;1.40;99.90;;;-0.10;100.00;98763.06;5091108;28;20475;-77
2021/12/20 06:52:16;;;;;;;13.77;8.50;;;1.40;99.90;;;-0.02;100.00;98763.25;5101645;28;20957;-75
2021/12/20 06:55:02;;;;;;;16.67;11.30;;;1.50;99.90;;;-0.20;100.00;98759.50;5092422;28;20517;-75
2021/12/20 06:57:49;;;;;;;18.00;10.07;;;1.40;99.90;;;0.00;100.00;98765.81;5096412;28;20458;-77
2021/12/20 07:00:35;;;;;;;14.17;8.87;;;1.50;99.90;;;-0.20;100.00;98756.84;5089431;28;20470;-77
2021/12/20 07:03:22;;;;;;;13.63;9.50;;;1.40;99.90;;;-0.26;100.00;98760.00;5105759;28;20561;-76
2021/12/20 07:06:10;;;;;;;18.63;10.90;;;1.30;99.90;;;-0.40;100.00;98756.66;5096743;28;20486;-74
2021/12/20 07:08:56;;;;;;;18.70;10.30;;;1.10;99.90;;;-0.39;100.00;98757.53;5101480;28;20455;-73
2021/12/20 07:11:43;;;;;;;19.87;9.30;;;1.10;99.90;;;-0.40;100.00;98761.16;5108151;28;20507;-68
2021/12/20 07:14:29;;;;;;;12.10;9.00;;;1.10;99.90;;;-0.47;100.00;98766.94;5084903;28;20443;-71
2021/12/20 07:17:15;;;;;;;13.17;8.57;;;1.00;99.90;;;-0.55;100.00;98769.41;5082197;28;20494;-70
2021/12/20 07:20:00;;;;;;;19.63;9.53;;;1.00;99.90;;;-0.40;100.00;98772.59;5081060;28;20467;-70
2021/12/20 07:22:48;;;;;;;14.67;9.00;;;1.10;99.90;;;-0.36;100.00;98760.78;5087786;28;20847;-70
2021/12/20 07:25:33;;;;;;;21.80;8.90;;;1.10;99.90;;;-0.41;100.00;98770.09;5090004;28;20520;-70
2021/12/20 07:28:19;;;;;;;15.80;10.20;;;1.10;99.90;;;-0.31;100.00;98774.50;5081173;28;20522;-69
2021/12/20 07:31:05;;;;;;;25.90;12.07;;;1.20;99.90;;;-0.35;100.00;98775.75;5077067;28;20466;-69
2021/12/20 07:33:51;;;;;;;17.30;11.67;;;1.20;99.90;;;-0.54;100.00;98771.09;5081154;28;20521;-70
2021/12/20 07:36:36;;;;;;;19.40;11.93;;;1.00;99.90;;;-0.46;100.00;98789.06;5086471;28;21375;-70
2021/12/20 07:39:23;;;;;;;19.60;11.87;;;1.00;99.90;;;-0.51;100.00;98770.00;5085492;28;20601;-69
2021/12/20 07:42:10;;;;;;;28.93;11.33;;;1.10;99.90;;;-0.59;100.00;98739.63;5082405;28;20508;-69
2021/12/20 07:44:56;;;;;;;28.53;11.10;;;1.20;99.90;;;-0.23;100.00;98784.50;5082726;28;20598;-69
2021/12/20 07:47:42;;;;;;;19.27;11.17;;;1.30;99.90;;;-0.17;100.00;98799.09;5084868;28;20459;-69
2021/12/20 07:50:28;;;;;;;23.97;10.80;;;1.30;99.90;;;-0.22;100.00;98790.66;5084820;28;20463;-69
2021/12/20 07:53:14;;;;;;;20.20;9.50;;;1.30;99.90;;;-0.39;100.00;98807.97;5086178;28;20492;-69
2021/12/20 07:56:02;;;;;;;27.10;10.53;;;1.20;99.90;;;-0.42;100.00;98798.44;5079684;28;20521;-69
2021/12/20 07:58:48;;;;;;;17.40;9.90;;;1.10;99.90;;;-0.49;100.00;98794.63;5078962;28;20797;-70
2021/12/20 08:01:35;;;;;;;16.13;8.73;;;1.00;99.90;;;-0.61;100.00;98802.59;5086853;28;20455;-69
2021/12/20 08:04:21;;;;;;;21.97;11.27;;;0.90;99.90;;;-0.49;100.00;98803.41;5085819;28;20459;-69
2021/12/20 08:07:07;;;;;;;21.57;10.50;;;1.00;99.90;;;-0.41;100.00;98808.09;5086542;28;20521;-69
2021/12/20 08:09:53;;;;;;;13.67;8.50;;;1.10;99.90;;;-0.30;100.00;98805.41;5086922;28;20452;-69
2021/12/20 08:12:40;;;;;;;18.17;10.10;;;1.10;99.90;;;-0.32;100.00;98803.84;5083239;28;20966;-70
2021/12/20 08:15:26;;;;;;;18.60;11.23;;;1.20;99.90;;;-0.20;100.00;98813.47;5084203;28;20656;-70
2021/12/20 08:18:12;;;;;;;23.60;12.43;;;1.30;99.90;;;-0.16;100.00;98816.72;5084193;28;20590;-69
2021/12/20 08:20:59;;;;;;;24.60;13.50;;;1.40;99.90;;;-0.17;100.00;98821.16;5082064;28;20464;-70
2021/12/20 08:23:45;;;;;;;27.70;14.27;;;1.40;99.90;;;-0.11;100.00;98827.78;5082691;28;21235;-70
2021/12/20 08:26:30;;;;;;;23.87;12.60;;;1.40;99.90;;;-0.14;100.00;98830.69;5082560;28;20454;-70
2021/12/20 08:29:17;;;;;;;22.30;13.53;;;1.40;99.90;;;-0.23;100.00;98820.81;5082765;28;20847;-70
2021/12/20 08:32:04;;;;;;;24.83;12.00;;;1.40;99.90;;;-0.21;100.00;98825.06;5086848;28;20513;-70
2021/12/20 08:34:50;;;;;;;18.63;11.53;;;1.40;99.90;;;-0.21;100.00;98818.91;5083125;28;20947;-69
2021/12/20 08:37:36;;;;;;;19.17;11.73;;;1.40;99.90;;;-0.16;100.00;98828.16;5091942;28;20472;-70
2021/12/20 08:40:23;;;;;;;22.00;11.60;;;1.40;99.90;;;-0.12;100.00;98826.09;5081398;28;21043;-70
2021/12/20 08:43:09;;;;;;;19.80;11.73;;;1.40;99.90;;;-0.08;100.00;98808.94;5083987;28;20542;-69
2021/12/20 08:45:56;;;;;;;18.30;10.90;;;1.50;99.90;;;0.02;100.00;98830.28;5086126;28;20439;-69
2021/12/20 08:48:41;;;;;;;21.77;11.60;;;1.50;99.90;;;-0.06;100.00;98828.25;5076999;28;20823;-69
2021/12/20 08:51:27;;;;;;;17.80;10.47;;;1.50;99.90;;;0.08;100.00;98828.94;5086466;28;21114;-69
2021/12/20 08:54:15;;;;;;;20.80;11.17;;;1.50;99.90;;;0.01;100.00;98822.44;5080126;28;20472;-69
2021/12/20 08:57:01;;;;;;;19.20;10.80;;;1.60;99.90;;;0.14;100.00;98834.56;5084492;28;20439;-69
2021/12/20 08:59:47;;;;;;;24.00;10.73;;;1.60;99.90;;;0.14;100.00;98839.03;5087467;28;21084;-69
2021/12/20 09:02:34;;;;;;;20.97;9.83;;;1.60;99.90;;;0.10;100.00;98833.13;5088229;28;20594;-69
2021/12/20 09:05:22;;;;;;;17.50;10.27;;;1.60;99.90;;;0.14;100.00;98844.34;5079531;28;21816;-68
2021/12/20 09:08:10;;;;;;;19.27;11.03;;;1.70;99.90;;;0.09;100.00;98835.94;5089110;28;20475;-68
2021/12/20 09:10:55;;;;;;;20.70;10.30;;;1.60;99.90;;;0.17;100.00;98844.09;5093761;28;20486;-69
2021/12/20 09:13:42;;;;;;;17.93;11.77;;;1.70;99.90;;;0.44;100.00;98839.22;5081762;28;20827;-73
2021/12/20 09:16:28;;;;;;;18.93;9.60;;;1.80;99.90;;;0.30;100.00;98843.06;5079718;28;20983;-70
2021/12/20 09:19:15;;;;;;;22.90;10.47;;;1.80;99.90;;;0.34;100.00;98845.34;5080975;28;20448;-69
2021/12/20 09:22:01;;;;;;;15.50;9.57;;;1.80;99.90;;;0.26;100.00;98851.31;5083776;28;20486;-69
2021/12/20 09:24:47;;;;;;;15.70;8.70;;;1.80;99.90;;;0.36;100.00;98850.50;5084310;28;21208;-69
2021/12/20 09:27:33;;;;;;;17.13;9.50;;;1.80;99.90;;;0.38;100.00;98851.22;5081333;28;20444;-68
2021/12/20 09:30:20;;;;;;;15.77;8.10;;;1.80;99.90;;;0.45;100.00;98868.34;5087770;28;20466;-69
2021/12/20 09:33:06;;;;;;;10.70;7.90;;;1.90;99.90;;;0.44;100.00;98860.50;5084306;28;20446;-69
2021/12/20 09:35:54;;;;;;;15.13;8.27;;;1.90;99.90;;;0.43;100.00;98862.34;5087884;28;20447;-69
2021/12/20 09:38:39;;;;;;;12.00;7.27;;;1.90;99.90;;;0.55;99.21;98863.97;5085860;28;20447;-78
2021/12/20 09:44:29;;;;;;;12.90;7.43;;;2.00;98.40;;;0.61;96.99;98859.94;5082855;28;20459;-69
2021/12/20 09:47:15;;;;;;;15.83;8.50;;;2.00;99.00;;;0.69;97.92;98862.75;5088569;28;20803;-69
2021/12/20 09:50:04;;;;;;;12.07;6.97;;;2.10;99.90;;;0.75;96.66;98864.06;5082906;28;20460;-69
2021/12/20 09:52:51;;;;;;;13.73;7.73;;;2.20;98.40;;;0.69;96.82;98848.63;5091430;28;20463;-72
2021/12/20 09:55:37;;;;;;;12.47;8.20;;;2.20;97.50;;;0.79;96.60;98859.31;5088671;28;20451;-74
2021/12/20 09:58:24;;;;;;;17.47;7.90;;;2.20;96.90;;;0.73;97.31;98871.34;5084280;28;20553;-68
2021/12/20 10:01:13;;;;;;;13.70;7.90;;;2.20;97.40;;;0.69;96.90;98861.94;5084695;28;20467;-67
2021/12/20 10:03:59;;;;;;;15.07;7.70;;;2.20;96.80;;;0.70;96.46;98852.97;5084060;28;20428;-67
2021/12/20 10:06:46;;;;;;;13.43;7.30;;;2.30;96.10;;;0.87;96.08;98866.66;5080300;28;20459;-68
2021/12/20 10:09:34;;;;;;;14.53;8.17;;;2.30;95.50;;;0.96;96.12;98864.03;5087311;28;21015;-68
2021/12/20 10:12:22;;;;;;;13.17;7.50;;;2.40;95.30;;;0.96;96.15;98865.84;5086403;28;20464;-68
2021/12/20 10:15:12;;;;;;;14.23;7.53;;;2.40;96.30;;;1.00;97.20;98853.97;5091220;28;21009;-66
2021/12/20 10:18:00;;;;;;;11.87;6.70;;;2.40;97.50;;;1.07;96.00;98863.09;5085174;28;21041;-68
2021/12/20 10:20:51;;;;;;;11.53;6.90;;;2.50;96.30;;;1.19;94.95;98861.16;5092338;28;20459;-67
2021/12/20 10:23:41;;;;;;;9.70;5.97;;;2.60;95.30;;;1.30;94.00;98867.38;5094275;28;20479;-67
2021/12/20 10:26:28;;;;;;;10.30;6.10;;;2.70;93.30;;;1.39;93.59;98863.91;5093795;28;20467;-67
2021/12/20 10:29:19;;;;;;;12.63;5.60;;;2.80;92.70;;;1.36;93.46;98861.50;5094119;28;20470;-67
2021/12/20 10:32:06;;;;;;;9.77;5.07;;;2.80;92.80;;;1.50;92.08;98862.97;5088130;28;20676;-67
2021/12/20 10:34:52;;;;;;;12.37;4.97;;;2.90;91.60;;;1.45;92.61;98857.22;5096184;28;20466;-67
2021/12/20 10:37:39;;;;;;;8.67;4.50;;;2.90;91.30;;;1.49;90.83;98856.78;5093692;28;20517;-67
2021/12/20 10:40:26;;;;;;;8.90;4.40;;;3.00;90.10;;;1.45;87.04;98846.56;5089762;28;20617;-68
2021/12/20 10:43:15;;;;;;;5.00;2.60;;;3.00;84.00;;;1.44;81.86;98852.81;5090660;28;20557;-69
2021/12/20 10:46:12;;;;;;;4.27;2.07;;;3.00;77.50;;;1.49;77.65;98850.63;5091292;28;20456;-67
2021/12/20 10:49:03;;;;;;;4.97;1.80;;;3.00;73.40;;;1.36;78.06;98841.06;5089370;28;21242;-68
2021/12/20 10:51:51;;;;;;;2.30;1.77;;;2.90;73.40;;;1.64;73.42;98843.06;5089600;28;20463;-67
2021/12/20 10:54:44;;;;;;;4.37;1.80;;;3.10;69.60;;;1.64;71.91;98849.25;5088987;28;20447;-68
2021/12/20 10:57:30;;;;;;;8.27;2.00;;;3.10;67.00;;;1.74;73.62;98856.38;5084384;28;20474;-68
2021/12/20 11:00:22;;;;;;;3.23;1.60;;;3.20;68.50;;;1.80;73.83;98850.53;5085520;28;20460;-68
2021/12/20 11:03:19;;;;;;;4.23;2.20;;;3.20;68.80;;;1.73;73.05;98842.25;5087563;28;20439;-68
2021/12/20 11:06:25;;;;;;;3.00;1.57;;;3.30;68.10;;;1.86;70.04;98857.97;5098179;28;20451;-67
2021/12/20 11:09:16;;;;;;;3.43;1.37;;;3.30;64.70;;;1.85;68.52;98858.94;5089433;28;21036;-67
2021/12/20 11:12:06;;;;;;;2.43;1.40;;;3.40;62.60;;;1.84;66.43;98849.25;5087929;28;20471;-67
2021/12/20 11:14:59;;;;;;;3.10;1.30;;;3.30;60.20;;;1.91;64.79;98847.75;5098478;28;20432;-67
2021/12/20 11:17:47;;;;;;;4.90;2.13;;;3.40;58.40;;;1.88;64.84;98845.31;5088127;28;21028;-67
2021/12/20 11:20:33;;;;;;;2.40;0.70;;;3.40;58.10;;;1.72;63.77;98843.22;5086941;28;20466;-67
2021/12/20 11:23:26;;;;;;;4.17;1.00;;;3.30;57.00;;;1.73;63.67;98844.06;5086141;28;20822;-68
2021/12/20 11:26:12;;;;;;;2.00;0.93;;;3.30;56.90;;;1.84;63.25;98841.25;5085800;28;20539;-67
2021/12/20 11:28:58;;;;;;;3.53;1.00;;;3.30;56.90;;;1.84;62.72;98835.94;5080377;28;20443;-67
2021/12/20 11:31:45;;;;;;;5.20;1.87;;;3.40;56.10;;;1.88;62.99;98839.16;5090169;28;20434;-67
2021/12/20 11:34:34;;;;;;;2.87;1.00;;;3.40;56.20;;;1.87;61.23;98834.81;5085473;28;20466;-68
2021/12/20 11:37:23;;;;;;;3.47;1.87;;;3.40;54.70;;;1.81;62.65;98817.56;5085430;28;21030;-67
2021/12/20 11:40:40;;;;;;;2.20;1.10;;;3.50;55.20;;;2.05;63.35;98829.66;5078720;28;21032;-72
2021/12/20 11:43:40;;;;;;;4.23;1.67;;;3.50;56.20;;;1.59;62.41;98766.22;5086138;28;20806;-70
2021/12/20 11:46:36;;;;;;;1.77;1.30;;;3.50;56.00;;;1.97;62.79;98823.19;5087379;28;20496;-67